createdAt,value
2019-05-22T00:00:11.573Z,1012.17
2019-05-22T00:01:11.782Z,1012.15
2019-05-22T00:02:11.563Z,1012.15
2019-05-22T00:03:11.770Z,1012.18
2019-05-22T00:04:11.555Z,1012.16
2019-05-22T00:05:11.566Z,1012.15
2019-05-22T00:06:11.571Z,1012.20
2019-05-22T00:07:11.554Z,1012.15
2019-05-22T00:08:11.542Z,1012.16
2019-05-22T00:09:11.733Z,1012.17
2019-05-22T00:10:11.745Z,1012.20
2019-05-22T00:11:11.540Z,1012.17
2019-05-22T00:12:11.524Z,1012.15
2019-05-22T00:13:11.517Z,1012.18
2019-05-22T00:14:11.531Z,1012.11
2019-05-22T00:15:11.512Z,1012.16
2019-05-22T00:16:11.509Z,1012.19
2019-05-22T00:17:11.510Z,1012.18
2019-05-22T00:18:11.514Z,1012.20
2019-05-22T00:19:11.497Z,1012.19
2019-05-22T00:20:11.491Z,1012.16
2019-05-22T00:21:11.495Z,1012.23
2019-05-22T00:22:11.500Z,1012.23
2019-05-22T00:23:11.518Z,1012.25
2019-05-22T00:24:11.487Z,1012.26
2019-05-22T00:25:11.485Z,1012.26
2019-05-22T00:26:11.466Z,1012.28
2019-05-22T00:27:11.483Z,1012.30
2019-05-22T00:28:11.478Z,1012.31
2019-05-22T00:29:11.498Z,1012.29
2019-05-22T00:30:11.455Z,1012.29
2019-05-22T00:31:11.446Z,1012.29
2019-05-22T00:32:11.464Z,1012.28
2019-05-22T00:33:11.468Z,1012.29
2019-05-22T00:34:11.674Z,1012.36
2019-05-22T00:35:11.645Z,1012.32
2019-05-22T00:36:11.437Z,1012.30
2019-05-22T00:37:11.443Z,1012.32
2019-05-22T00:38:11.465Z,1012.30
2019-05-22T00:39:11.417Z,1012.30
2019-05-22T00:40:11.888Z,1012.29
2019-05-22T00:41:11.456Z,1012.29
2019-05-22T00:42:11.404Z,1012.33
2019-05-22T00:43:14.171Z,1012.33
2019-05-22T00:44:11.393Z,1012.33
2019-05-22T00:45:11.390Z,1012.28
2019-05-22T00:46:11.410Z,1012.34
2019-05-22T00:47:11.403Z,1012.32
2019-05-22T00:48:11.581Z,1012.34
2019-05-22T00:49:11.575Z,1012.38
2019-05-22T00:50:11.370Z,1012.36
2019-05-22T00:51:11.365Z,1012.37
2019-05-22T00:52:11.359Z,1012.37
2019-05-22T00:53:11.360Z,1012.36
2019-05-22T00:54:11.571Z,1012.35
2019-05-22T00:55:11.350Z,1012.38
2019-05-22T00:56:11.366Z,1012.37
2019-05-22T00:57:11.358Z,1012.34
2019-05-22T00:58:11.548Z,1012.31
2019-05-22T00:59:11.341Z,1012.34
2019-05-22T01:00:11.548Z,1012.31
2019-05-22T01:01:11.342Z,1012.32
2019-05-22T01:02:11.331Z,1012.34
2019-05-22T01:03:11.335Z,1012.35
2019-05-22T01:04:11.329Z,1012.39
2019-05-22T01:05:11.330Z,1012.39
2019-05-22T01:06:11.327Z,1012.41
2019-05-22T01:07:11.313Z,1012.42
2019-05-22T01:08:11.303Z,1012.44
2019-05-22T01:09:11.294Z,1012.46
2019-05-22T01:10:11.755Z,1012.43
2019-05-22T01:11:11.282Z,1012.43
2019-05-22T01:12:11.382Z,1012.45
2019-05-22T01:13:11.430Z,1012.42
2019-05-22T01:14:11.283Z,1012.45
2019-05-22T01:15:11.264Z,1012.46
2019-05-22T01:16:11.261Z,1012.47
2019-05-22T01:17:11.343Z,1012.47
2019-05-22T01:18:11.424Z,1012.50
2019-05-22T01:19:11.298Z,1012.49
2019-05-22T01:20:11.287Z,1012.45
2019-05-22T01:21:11.470Z,1012.50
2019-05-22T01:22:11.236Z,1012.45
2019-05-22T01:23:11.465Z,1012.49
2019-05-22T01:24:11.435Z,1012.50
2019-05-22T01:25:11.461Z,1012.50
2019-05-22T01:26:11.450Z,1012.52
2019-05-22T01:27:11.429Z,1012.54
2019-05-22T01:28:11.224Z,1012.49
2019-05-22T01:29:11.220Z,1012.51
2019-05-22T01:30:11.218Z,1012.54
2019-05-22T01:31:11.209Z,1012.54
2019-05-22T01:32:11.195Z,1012.55
2019-05-22T01:33:11.408Z,1012.54
2019-05-22T01:34:11.186Z,1012.56
2019-05-22T01:35:11.186Z,1012.59
2019-05-22T01:36:11.205Z,1012.57
2019-05-22T01:37:11.193Z,1012.61
2019-05-22T01:38:11.190Z,1012.58
2019-05-22T01:39:11.163Z,1012.57
2019-05-22T01:40:11.158Z,1012.59
2019-05-22T01:41:11.362Z,1012.59
2019-05-22T01:42:11.170Z,1012.59
2019-05-22T01:43:11.179Z,1012.66
2019-05-22T01:44:11.148Z,1012.61
2019-05-22T01:45:11.163Z,1012.64
2019-05-22T01:46:11.144Z,1012.63
2019-05-22T01:47:11.142Z,1012.65
2019-05-22T01:48:11.145Z,1012.62
2019-05-22T01:49:11.134Z,1012.61
2019-05-22T01:50:11.123Z,1012.64
2019-05-22T01:51:11.129Z,1012.67
2019-05-22T01:52:11.113Z,1012.63
2019-05-22T01:53:11.174Z,1012.64
2019-05-22T01:54:11.111Z,1012.64
2019-05-22T01:55:11.232Z,1012.63
2019-05-22T01:56:11.104Z,1012.66
2019-05-22T01:57:11.090Z,1012.67
2019-05-22T01:58:11.105Z,1012.66
2019-05-22T01:59:11.298Z,1012.65
2019-05-22T02:00:11.279Z,1012.66
2019-05-22T02:01:11.098Z,1012.65
2019-05-22T02:02:11.082Z,1012.68
2019-05-22T02:03:11.287Z,1012.65
2019-05-22T02:04:14.663Z,1012.65
2019-05-22T02:05:11.063Z,1012.66
2019-05-22T02:06:11.068Z,1012.65
2019-05-22T02:07:11.050Z,1012.64
2019-05-22T02:08:11.039Z,1012.66
2019-05-22T02:09:11.039Z,1012.66
2019-05-22T02:10:11.061Z,1012.70
2019-05-22T02:11:11.234Z,1012.73
2019-05-22T02:12:11.054Z,1012.71
2019-05-22T02:13:11.026Z,1012.72
2019-05-22T02:14:11.226Z,1012.74
2019-05-22T02:15:11.020Z,1012.71
2019-05-22T02:16:11.018Z,1012.70
2019-05-22T02:17:11.017Z,1012.67
2019-05-22T02:18:11.004Z,1012.67
2019-05-22T02:19:10.991Z,1012.68
2019-05-22T02:20:11.197Z,1012.63
2019-05-22T02:21:10.987Z,1012.68
2019-05-22T02:22:10.981Z,1012.67
2019-05-22T02:23:11.204Z,1012.68
2019-05-22T02:24:10.981Z,1012.67
2019-05-22T02:25:11.210Z,1012.68
2019-05-22T02:26:10.975Z,1012.71
2019-05-22T02:27:10.967Z,1012.73
2019-05-22T02:28:11.155Z,1012.77
2019-05-22T02:29:11.165Z,1012.69
2019-05-22T02:30:11.163Z,1012.72
2019-05-22T02:31:10.958Z,1012.69
2019-05-22T02:32:10.940Z,1012.74
2019-05-22T02:33:10.971Z,1012.73
2019-05-22T02:34:10.953Z,1012.74
2019-05-22T02:35:11.152Z,1012.76
2019-05-22T02:36:10.926Z,1012.78
2019-05-22T02:37:10.923Z,1012.77
2019-05-22T02:38:10.918Z,1012.80
2019-05-22T02:39:10.929Z,1012.81
2019-05-22T02:40:11.122Z,1012.81
2019-05-22T02:41:14.281Z,1012.82
2019-05-22T02:42:10.903Z,1012.87
2019-05-22T02:43:10.895Z,1012.88
2019-05-22T02:44:10.910Z,1012.85
2019-05-22T02:45:10.901Z,1012.87
2019-05-22T02:46:10.924Z,1012.90
2019-05-22T02:47:19.129Z,1012.89
2019-05-22T02:48:10.881Z,1012.89
2019-05-22T02:49:10.878Z,1012.92
2019-05-22T02:50:10.879Z,1012.91
2019-05-22T02:51:10.881Z,1012.91
2019-05-22T02:52:10.857Z,1012.88
2019-05-22T02:53:10.861Z,1012.89
2019-05-22T02:54:11.066Z,1012.90
2019-05-22T02:55:10.844Z,1012.89
2019-05-22T02:56:10.864Z,1012.86
2019-05-22T02:57:10.844Z,1012.91
2019-05-22T02:58:10.837Z,1012.90
2019-05-22T02:59:10.822Z,1012.93
2019-05-22T03:00:10.829Z,1012.93
2019-05-22T03:01:10.819Z,1012.92
2019-05-22T03:02:10.819Z,1012.96
2019-05-22T03:03:10.803Z,1012.94
2019-05-22T03:04:10.797Z,1012.95
2019-05-22T03:05:10.791Z,1012.94
2019-05-22T03:06:10.829Z,1012.97
2019-05-22T03:07:10.787Z,1012.98
2019-05-22T03:08:10.998Z,1012.99
2019-05-22T03:09:10.782Z,1013.00
2019-05-22T03:11:10.762Z,1013.02
2019-05-22T03:12:10.787Z,1013.07
2019-05-22T03:13:10.785Z,1013.04
2019-05-22T03:14:10.766Z,1013.04
2019-05-22T03:15:10.773Z,1013.06
2019-05-22T03:16:10.747Z,1013.05
2019-05-22T03:17:10.748Z,1013.07
2019-05-22T03:18:10.750Z,1013.04
2019-05-22T03:19:10.744Z,1013.10
2019-05-22T03:20:10.722Z,1013.08
2019-05-22T03:21:10.736Z,1013.08
2019-05-22T03:22:10.723Z,1013.12
2019-05-22T03:23:10.724Z,1013.03
2019-05-22T03:24:10.721Z,1013.11
2019-05-22T03:25:10.913Z,1013.13
2019-05-22T03:26:10.836Z,1013.13
2019-05-22T03:27:10.703Z,1013.09
2019-05-22T03:28:10.896Z,1013.11
2019-05-22T03:29:10.901Z,1013.17
2019-05-22T03:30:10.687Z,1013.19
2019-05-22T03:31:10.686Z,1013.18
2019-05-22T03:32:10.684Z,1013.18
2019-05-22T03:33:10.890Z,1013.23
2019-05-22T03:34:10.666Z,1013.19
2019-05-22T03:35:10.675Z,1013.25
2019-05-22T03:36:10.680Z,1013.23
2019-05-22T03:37:10.669Z,1013.27
2019-05-22T03:38:10.650Z,1013.26
2019-05-22T03:39:10.644Z,1013.28
2019-05-22T03:40:10.637Z,1013.32
2019-05-22T03:41:10.630Z,1013.28
2019-05-22T03:42:10.651Z,1013.25
2019-05-22T03:43:10.841Z,1013.27
2019-05-22T03:44:10.701Z,1013.22
2019-05-22T03:45:10.617Z,1013.26
2019-05-22T03:46:10.626Z,1013.25
2019-05-22T03:47:10.610Z,1013.28
2019-05-22T03:48:10.600Z,1013.27
2019-05-22T03:49:28.300Z,1013.30
2019-05-22T03:50:10.599Z,1013.27
2019-05-22T03:51:10.805Z,1013.24
2019-05-22T03:52:10.591Z,1013.28
2019-05-22T03:53:10.783Z,1013.25
2019-05-22T03:54:10.581Z,1013.23
2019-05-22T03:55:10.580Z,1013.20
2019-05-22T03:56:10.576Z,1013.27
2019-05-22T03:57:10.560Z,1013.22
2019-05-22T03:58:10.555Z,1013.23
2019-05-22T03:59:10.550Z,1013.20
2019-05-22T04:00:10.551Z,1013.28
2019-05-22T04:01:10.572Z,1013.23
2019-05-22T04:02:10.553Z,1013.22
2019-05-22T04:03:10.531Z,1013.28
2019-05-22T04:04:10.735Z,1013.23
2019-05-22T04:05:10.536Z,1013.29
2019-05-22T04:06:10.724Z,1013.29
2019-05-22T04:07:10.517Z,1013.31
2019-05-22T04:08:10.520Z,1013.33
2019-05-22T04:09:10.514Z,1013.30
2019-05-22T04:10:10.712Z,1013.35
2019-05-22T04:11:10.523Z,1013.32
2019-05-22T04:12:10.544Z,1013.36
2019-05-22T04:13:10.521Z,1013.37
2019-05-22T04:14:10.482Z,1013.38
2019-05-22T04:15:10.484Z,1013.43
2019-05-22T04:16:10.478Z,1013.40
2019-05-22T04:17:10.476Z,1013.45
2019-05-22T04:18:10.484Z,1013.43
2019-05-22T04:19:10.463Z,1013.44
2019-05-22T04:20:10.459Z,1013.47
2019-05-22T04:21:10.446Z,1013.49
2019-05-22T04:22:10.439Z,1013.49
2019-05-22T04:23:10.445Z,1013.52
2019-05-22T04:24:10.433Z,1013.54
2019-05-22T04:25:10.632Z,1013.55
2019-05-22T04:26:10.431Z,1013.56
2019-05-22T04:27:10.429Z,1013.52
2019-05-22T04:28:10.423Z,1013.55
2019-05-22T04:29:10.428Z,1013.55
2019-05-22T04:30:10.413Z,1013.54
2019-05-22T04:31:10.410Z,1013.57
2019-05-22T04:32:10.407Z,1013.67
2019-05-22T04:33:10.395Z,1013.60
2019-05-22T04:34:10.397Z,1013.67
2019-05-22T04:35:10.389Z,1013.66
2019-05-22T04:36:10.635Z,1013.67
2019-05-22T04:37:10.386Z,1013.68
2019-05-22T04:38:10.397Z,1013.67
2019-05-22T04:39:10.369Z,1013.70
2019-05-22T04:40:10.576Z,1013.72
2019-05-22T04:41:10.373Z,1013.71
2019-05-22T04:42:10.350Z,1013.70
2019-05-22T04:43:10.369Z,1013.73
2019-05-22T04:44:10.343Z,1013.73
2019-05-22T04:45:10.357Z,1013.72
2019-05-22T04:46:10.354Z,1013.73
2019-05-22T04:47:10.332Z,1013.72
2019-05-22T04:48:10.337Z,1013.72
2019-05-22T04:49:10.344Z,1013.71
2019-05-22T04:50:10.322Z,1013.74
2019-05-22T04:51:10.317Z,1013.68
2019-05-22T04:52:10.307Z,1013.68
2019-05-22T04:53:10.303Z,1013.68
2019-05-22T04:54:10.298Z,1013.66
2019-05-22T04:55:10.309Z,1013.69
2019-05-22T04:56:10.319Z,1013.69
2019-05-22T04:57:10.284Z,1013.72
2019-05-22T04:58:10.513Z,1013.71
2019-05-22T04:59:10.298Z,1013.71
2019-05-22T05:00:10.280Z,1013.75
2019-05-22T05:01:10.489Z,1013.74
2019-05-22T05:02:10.271Z,1013.69
2019-05-22T05:03:10.306Z,1013.70
2019-05-22T05:04:10.751Z,1013.70
2019-05-22T05:05:10.275Z,1013.74
2019-05-22T05:06:10.464Z,1013.72
2019-05-22T05:07:10.236Z,1013.72
2019-05-22T05:08:10.237Z,1013.71
2019-05-22T05:09:10.456Z,1013.74
2019-05-22T05:10:10.227Z,1013.76
2019-05-22T05:11:10.221Z,1013.77
2019-05-22T05:12:10.247Z,1013.76
2019-05-22T05:13:10.222Z,1013.74
2019-05-22T05:14:10.220Z,1013.74
2019-05-22T05:15:10.214Z,1013.76
2019-05-22T05:16:10.215Z,1013.76
2019-05-22T05:17:10.195Z,1013.79
2019-05-22T05:18:10.189Z,1013.80
2019-05-22T05:19:10.203Z,1013.75
2019-05-22T05:20:21.622Z,1013.79
2019-05-22T05:21:10.184Z,1013.77
2019-05-22T05:22:10.179Z,1013.85
2019-05-22T05:23:10.381Z,1013.82
2019-05-22T05:24:10.174Z,1013.83
2019-05-22T05:25:10.176Z,1013.85
2019-05-22T05:26:10.174Z,1013.88
2019-05-22T05:27:10.366Z,1013.92
2019-05-22T05:28:10.159Z,1013.90
2019-05-22T05:29:10.373Z,1013.93
2019-05-22T05:30:10.137Z,1013.94
2019-05-22T05:31:10.148Z,1013.91
2019-05-22T05:32:10.139Z,1013.90
2019-05-22T05:33:10.345Z,1013.93
2019-05-22T05:34:10.349Z,1013.95
2019-05-22T05:35:10.127Z,1013.90
2019-05-22T05:36:10.320Z,1013.95
2019-05-22T05:37:10.119Z,1013.95
2019-05-22T05:38:10.101Z,1013.94
2019-05-22T05:39:10.113Z,1013.95
2019-05-22T05:40:10.104Z,1013.95
2019-05-22T05:41:10.308Z,1013.99
2019-05-22T05:42:10.091Z,1014.02
2019-05-22T05:43:10.094Z,1014.04
2019-05-22T05:44:10.074Z,1014.03
2019-05-22T05:45:13.238Z,1014.07
2019-05-22T05:46:10.093Z,1014.03
2019-05-22T05:47:10.069Z,1014.04
2019-05-22T05:48:10.066Z,1014.04
2019-05-22T05:49:10.068Z,1014.05
2019-05-22T05:50:10.076Z,1014.08
2019-05-22T05:51:10.041Z,1014.06
2019-05-22T05:52:10.041Z,1014.03
2019-05-22T05:53:10.035Z,1014.03
2019-05-22T05:54:10.228Z,1014.06
2019-05-22T05:55:10.229Z,1014.09
2019-05-22T05:56:10.023Z,1014.09
2019-05-22T05:57:10.018Z,1014.07
2019-05-22T05:58:10.226Z,1014.09
2019-05-22T05:59:10.015Z,1014.10
2019-05-22T06:00:10.213Z,1014.14
2019-05-22T06:01:10.036Z,1014.14
2019-05-22T06:02:10.007Z,1014.12
2019-05-22T06:03:10.197Z,1014.15
2019-05-22T06:05:09.998Z,1014.20
2019-05-22T06:06:09.988Z,1014.21
2019-05-22T06:07:09.993Z,1014.24
2019-05-22T06:08:09.964Z,1014.27
2019-05-22T06:09:09.963Z,1014.25
2019-05-22T06:10:09.973Z,1014.31
2019-05-22T06:11:09.968Z,1014.31
2019-05-22T06:12:09.946Z,1014.29
2019-05-22T06:13:09.981Z,1014.33
2019-05-22T06:14:09.950Z,1014.37
2019-05-22T06:15:09.936Z,1014.33
2019-05-22T06:16:09.939Z,1014.31
2019-05-22T06:17:09.939Z,1014.32
2019-05-22T06:18:09.937Z,1014.33
2019-05-22T06:19:09.918Z,1014.31
2019-05-22T06:20:09.920Z,1014.33
2019-05-22T06:21:09.927Z,1014.35
2019-05-22T06:22:09.910Z,1014.34
2019-05-22T06:23:09.927Z,1014.39
2019-05-22T06:24:09.924Z,1014.38
2019-05-22T06:25:09.919Z,1014.45
2019-05-22T06:26:09.997Z,1014.40
2019-05-22T06:27:09.883Z,1014.43
2019-05-22T06:28:09.881Z,1014.44
2019-05-22T06:29:09.899Z,1014.45
2019-05-22T06:30:10.103Z,1014.45
2019-05-22T06:31:09.871Z,1014.46
2019-05-22T06:32:09.855Z,1014.47
2019-05-22T06:33:09.876Z,1014.48
2019-05-22T06:34:09.850Z,1014.42
2019-05-22T06:35:09.844Z,1014.44
2019-05-22T06:36:09.853Z,1014.49
2019-05-22T06:37:09.839Z,1014.45
2019-05-22T06:38:09.835Z,1014.44
2019-05-22T06:39:09.826Z,1014.46
2019-05-22T06:40:09.833Z,1014.48
2019-05-22T06:41:09.826Z,1014.52
2019-05-22T06:42:09.815Z,1014.49
2019-05-22T06:43:09.812Z,1014.47
2019-05-22T06:44:10.030Z,1014.52
2019-05-22T06:45:09.813Z,1014.54
2019-05-22T06:46:09.795Z,1014.51
2019-05-22T06:47:10.026Z,1014.48
2019-05-22T06:48:09.993Z,1014.47
2019-05-22T06:49:09.788Z,1014.48
2019-05-22T06:50:10.029Z,1014.47
2019-05-22T06:51:19.106Z,1014.47
2019-05-22T06:52:09.800Z,1014.47
2019-05-22T06:53:10.383Z,1014.53
2019-05-22T06:54:09.763Z,1014.51
2019-05-22T06:55:09.773Z,1014.51
2019-05-22T06:56:09.753Z,1014.52
2019-05-22T06:57:09.744Z,1014.54
2019-05-22T06:58:09.755Z,1014.59
2019-05-22T06:59:09.749Z,1014.56
2019-05-22T07:00:14.100Z,1014.57
2019-05-22T07:01:09.944Z,1014.56
2019-05-22T07:02:09.748Z,1014.62
2019-05-22T07:03:09.725Z,1014.59
2019-05-22T07:04:09.960Z,1014.62
2019-05-22T07:05:09.723Z,1014.62
2019-05-22T07:06:09.718Z,1014.63
2019-05-22T07:07:11.819Z,1014.61
2019-05-22T07:08:09.711Z,1014.64
2019-05-22T07:09:09.695Z,1014.67
2019-05-22T07:10:09.906Z,1014.68
2019-05-22T07:11:09.729Z,1014.69
2019-05-22T07:12:09.696Z,1014.68
2019-05-22T07:13:09.714Z,1014.72
2019-05-22T07:14:09.677Z,1014.71
2019-05-22T07:15:09.878Z,1014.73
2019-05-22T07:16:09.665Z,1014.71
2019-05-22T07:17:09.662Z,1014.71
2019-05-22T07:18:12.552Z,1014.69
2019-05-22T07:19:09.650Z,1014.69
2019-05-22T07:20:09.648Z,1014.69
2019-05-22T07:21:09.638Z,1014.71
2019-05-22T07:22:09.643Z,1014.68
2019-05-22T07:23:09.653Z,1014.73
2019-05-22T07:24:09.646Z,1014.71
2019-05-22T07:25:09.637Z,1014.72
2019-05-22T07:26:09.627Z,1014.73
2019-05-22T07:27:09.612Z,1014.76
2019-05-22T07:28:09.823Z,1014.73
2019-05-22T07:29:09.821Z,1014.75
2019-05-22T07:30:09.823Z,1014.76
2019-05-22T07:31:09.802Z,1014.73
2019-05-22T07:32:09.797Z,1014.73
2019-05-22T07:33:09.795Z,1014.80
2019-05-22T07:34:09.588Z,1014.74
2019-05-22T07:35:09.801Z,1014.77
2019-05-22T07:36:13.604Z,1014.73
2019-05-22T07:37:09.777Z,1014.76
2019-05-22T07:38:09.783Z,1014.77
2019-05-22T07:39:09.575Z,1014.79
2019-05-22T07:40:09.561Z,1014.76
2019-05-22T07:41:09.734Z,1014.79
2019-05-22T07:42:09.575Z,1014.79
2019-05-22T07:43:09.567Z,1014.81
2019-05-22T07:44:09.567Z,1014.83
2019-05-22T07:45:09.563Z,1014.80
2019-05-22T07:46:09.541Z,1014.80
2019-05-22T07:47:09.538Z,1014.84
2019-05-22T07:48:10.053Z,1014.81
2019-05-22T07:49:09.519Z,1014.82
2019-05-22T07:50:09.528Z,1014.85
2019-05-22T07:51:09.612Z,1014.85
2019-05-22T07:52:09.512Z,1014.85
2019-05-22T07:53:09.518Z,1014.84
2019-05-22T07:54:09.508Z,1014.84
2019-05-22T07:55:09.510Z,1014.84
2019-05-22T07:56:09.498Z,1014.85
2019-05-22T07:57:09.501Z,1014.88
2019-05-22T07:58:09.688Z,1014.86
2019-05-22T07:59:09.480Z,1014.83
2019-05-22T08:00:09.491Z,1014.79
2019-05-22T08:01:09.495Z,1014.85
2019-05-22T08:02:09.487Z,1014.82
2019-05-22T08:03:09.461Z,1014.84
2019-05-22T08:04:09.464Z,1014.83
2019-05-22T08:05:09.478Z,1014.82
2019-05-22T08:06:09.462Z,1014.87
2019-05-22T08:07:09.441Z,1014.84
2019-05-22T08:08:09.475Z,1014.81
2019-05-22T08:09:09.449Z,1014.82
2019-05-22T08:10:09.678Z,1014.81
2019-05-22T08:11:09.481Z,1014.83
2019-05-22T08:12:09.452Z,1014.86
2019-05-22T08:13:09.448Z,1014.86
2019-05-22T08:14:09.430Z,1014.85
2019-05-22T08:15:09.421Z,1014.89
2019-05-22T08:16:09.411Z,1014.86
2019-05-22T08:17:09.404Z,1014.86
2019-05-22T08:18:09.411Z,1014.83
2019-05-22T08:19:09.613Z,1014.86
2019-05-22T08:20:09.400Z,1014.87
2019-05-22T08:21:09.389Z,1014.88
2019-05-22T08:22:09.376Z,1014.89
2019-05-22T08:23:09.586Z,1014.87
2019-05-22T08:24:09.385Z,1014.87
2019-05-22T08:25:09.380Z,1014.91
2019-05-22T08:26:09.371Z,1014.89
2019-05-22T08:27:09.363Z,1014.90
2019-05-22T08:28:09.358Z,1014.88
2019-05-22T08:29:09.354Z,1014.89
2019-05-22T08:30:09.554Z,1014.93
2019-05-22T08:31:09.347Z,1014.91
2019-05-22T08:32:09.335Z,1014.95
2019-05-22T08:33:09.332Z,1014.96
2019-05-22T08:34:09.351Z,1014.96
2019-05-22T08:35:09.340Z,1014.96
2019-05-22T08:36:09.376Z,1014.95
2019-05-22T08:37:09.348Z,1014.98
2019-05-22T08:38:09.340Z,1014.98
2019-05-22T08:39:09.344Z,1014.99
2019-05-22T08:40:09.315Z,1015.00
2019-05-22T08:41:09.327Z,1015.00
2019-05-22T08:42:09.292Z,1015.03
2019-05-22T08:43:09.295Z,1014.99
2019-05-22T08:44:16.712Z,1015.02
2019-05-22T08:45:09.302Z,1015.00
2019-05-22T08:46:09.298Z,1014.98
2019-05-22T08:47:09.483Z,1014.97
2019-05-22T08:48:09.288Z,1014.95
2019-05-22T08:49:09.290Z,1014.95
2019-05-22T08:50:09.261Z,1014.93
2019-05-22T08:51:09.491Z,1014.96
2019-05-22T08:52:22.442Z,1014.99
2019-05-22T08:53:09.273Z,1014.99
2019-05-22T08:54:09.249Z,1015.00
2019-05-22T08:55:09.245Z,1014.99
2019-05-22T08:56:09.249Z,1015.03
2019-05-22T08:57:09.244Z,1015.03
2019-05-22T08:58:09.238Z,1015.01
2019-05-22T08:59:19.056Z,1015.03
2019-05-22T09:00:12.360Z,1015.07
2019-05-22T09:01:09.233Z,1015.06
2019-05-22T09:02:09.258Z,1015.04
2019-05-22T09:03:09.224Z,1015.04
2019-05-22T09:04:09.217Z,1015.06
2019-05-22T09:05:09.230Z,1015.10
2019-05-22T09:06:09.201Z,1015.03
2019-05-22T09:07:09.220Z,1015.03
2019-05-22T09:08:09.194Z,1015.03
2019-05-22T09:09:09.201Z,1015.05
2019-05-22T09:10:09.198Z,1015.05
2019-05-22T09:11:09.186Z,1015.05
2019-05-22T09:12:09.175Z,1015.03
2019-05-22T09:13:09.186Z,1015.05
2019-05-22T09:14:09.177Z,1015.04
2019-05-22T09:15:09.173Z,1015.10
2019-05-22T09:16:09.175Z,1015.07
2019-05-22T09:17:09.169Z,1015.04
2019-05-22T09:18:09.162Z,1015.06
2019-05-22T09:19:09.147Z,1015.07
2019-05-22T09:20:09.145Z,1015.10
2019-05-22T09:21:09.153Z,1015.08
2019-05-22T09:22:09.147Z,1015.10
2019-05-22T09:23:09.140Z,1015.15
2019-05-22T09:24:09.142Z,1015.15
2019-05-22T09:25:09.149Z,1015.17
2019-05-22T09:26:09.123Z,1015.10
2019-05-22T09:27:09.121Z,1015.16
2019-05-22T09:28:09.147Z,1015.14
2019-05-22T09:29:09.315Z,1015.13
2019-05-22T09:30:09.112Z,1015.10
2019-05-22T09:31:09.308Z,1015.09
2019-05-22T09:32:09.340Z,1015.08
2019-05-22T09:33:09.306Z,1015.10
2019-05-22T09:34:09.100Z,1015.12
2019-05-22T09:35:09.104Z,1015.13
2019-05-22T09:36:09.288Z,1015.05
2019-05-22T09:37:09.298Z,1015.10
2019-05-22T09:38:09.087Z,1015.12
2019-05-22T09:39:09.296Z,1015.03
2019-05-22T09:40:09.068Z,1015.09
2019-05-22T09:41:09.107Z,1015.09
2019-05-22T09:42:09.073Z,1015.07
2019-05-22T09:43:09.058Z,1015.12
2019-05-22T09:44:09.071Z,1015.10
2019-05-22T09:45:09.281Z,1015.15
2019-05-22T09:46:09.050Z,1015.12
2019-05-22T09:47:09.039Z,1015.17
2019-05-22T09:48:09.047Z,1015.17
2019-05-22T09:49:09.039Z,1015.22
2019-05-22T09:50:09.034Z,1015.20
2019-05-22T09:51:09.029Z,1015.25
2019-05-22T09:52:09.040Z,1015.27
2019-05-22T09:53:09.043Z,1015.23
2019-05-22T09:54:09.039Z,1015.26
2019-05-22T09:55:09.028Z,1015.25
2019-05-22T09:56:09.023Z,1015.26
2019-05-22T09:57:09.032Z,1015.23
2019-05-22T09:58:09.016Z,1015.27
2019-05-22T09:59:08.999Z,1015.21
2019-05-22T10:00:09.204Z,1015.25
2019-05-22T10:01:11.645Z,1015.25
2019-05-22T10:02:08.991Z,1015.25
2019-05-22T10:03:08.984Z,1015.24
2019-05-22T10:04:09.182Z,1015.27
2019-05-22T10:05:09.233Z,1015.26
2019-05-22T10:06:09.177Z,1015.24
2019-05-22T10:07:08.970Z,1015.26
2019-05-22T10:08:08.973Z,1015.24
2019-05-22T10:09:09.169Z,1015.25
2019-05-22T10:10:08.986Z,1015.25
2019-05-22T10:11:08.971Z,1015.28
2019-05-22T10:12:08.964Z,1015.24
2019-05-22T10:13:08.963Z,1015.26
2019-05-22T10:14:08.962Z,1015.29
2019-05-22T10:15:09.136Z,1015.28
2019-05-22T10:16:09.140Z,1015.26
2019-05-22T10:17:08.931Z,1015.28
2019-05-22T10:18:08.949Z,1015.26
2019-05-22T10:19:09.143Z,1015.26
2019-05-22T10:20:08.955Z,1015.26
2019-05-22T10:21:08.920Z,1015.20
2019-05-22T10:22:08.921Z,1015.20
2019-05-22T10:23:15.387Z,1015.21
2019-05-22T10:24:08.904Z,1015.24
2019-05-22T10:25:15.421Z,1015.21
2019-05-22T10:26:09.104Z,1015.28
2019-05-22T10:27:08.909Z,1015.29
2019-05-22T10:28:08.896Z,1015.30
2019-05-22T10:29:08.890Z,1015.34
2019-05-22T10:30:08.902Z,1015.28
2019-05-22T10:31:09.888Z,1015.30
2019-05-22T10:32:09.093Z,1015.32
2019-05-22T10:33:08.881Z,1015.28
2019-05-22T10:34:08.878Z,1015.31
2019-05-22T10:35:08.874Z,1015.30
2019-05-22T10:36:08.880Z,1015.31
2019-05-22T10:37:08.878Z,1015.30
2019-05-22T10:38:08.871Z,1015.28
2019-05-22T10:39:08.878Z,1015.23
2019-05-22T10:40:08.862Z,1015.31
2019-05-22T10:41:08.846Z,1015.31
2019-05-22T10:42:08.853Z,1015.27
2019-05-22T10:43:08.863Z,1015.29
2019-05-22T10:44:08.843Z,1015.27
2019-05-22T10:45:08.852Z,1015.26
2019-05-22T10:46:08.854Z,1015.27
2019-05-22T10:47:08.849Z,1015.22
2019-05-22T10:48:08.826Z,1015.18
2019-05-22T10:49:08.836Z,1015.16
2019-05-22T10:50:08.838Z,1015.14
2019-05-22T10:51:08.814Z,1015.18
2019-05-22T10:52:08.811Z,1015.14
2019-05-22T10:53:08.834Z,1015.20
2019-05-22T10:54:08.815Z,1015.19
2019-05-22T10:55:08.816Z,1015.18
2019-05-22T10:56:08.964Z,1015.15
2019-05-22T10:57:08.806Z,1015.11
2019-05-22T10:58:08.854Z,1015.13
2019-05-22T10:59:08.799Z,1015.13
2019-05-22T11:00:08.804Z,1015.14
2019-05-22T11:01:08.795Z,1015.11
2019-05-22T11:02:08.802Z,1015.12
2019-05-22T11:03:08.795Z,1015.16
2019-05-22T11:04:08.779Z,1015.17
2019-05-22T11:05:08.777Z,1015.13
2019-05-22T11:06:08.833Z,1015.09
2019-05-22T11:07:08.763Z,1015.08
2019-05-22T11:08:08.778Z,1015.05
2019-05-22T11:09:08.787Z,1015.03
2019-05-22T11:10:08.816Z,1015.06
2019-05-22T11:11:08.759Z,1015.04
2019-05-22T11:12:08.763Z,1015.04
2019-05-22T11:13:08.771Z,1015.04
2019-05-22T11:14:09.583Z,1015.13
2019-05-22T11:15:08.748Z,1015.13
2019-05-22T11:16:08.759Z,1015.12
2019-05-22T11:17:08.748Z,1015.11
2019-05-22T11:18:08.738Z,1015.16
2019-05-22T11:19:08.757Z,1015.14
2019-05-22T11:20:08.733Z,1015.11
2019-05-22T11:21:08.748Z,1015.14
2019-05-22T11:22:08.747Z,1015.11
2019-05-22T11:23:08.729Z,1015.14
2019-05-22T11:24:08.717Z,1015.12
2019-05-22T11:25:08.714Z,1015.11
2019-05-22T11:26:08.714Z,1015.13
2019-05-22T11:27:08.717Z,1015.16
2019-05-22T11:28:08.908Z,1015.14
2019-05-22T11:29:08.718Z,1015.14
2019-05-22T11:30:08.711Z,1015.17
2019-05-22T11:31:08.698Z,1015.12
2019-05-22T11:32:08.705Z,1015.09
2019-05-22T11:33:08.696Z,1015.07
2019-05-22T11:34:08.713Z,1015.03
2019-05-22T11:35:08.707Z,1015.03
2019-05-22T11:36:08.676Z,1015.02
2019-05-22T11:37:08.682Z,1015.03
2019-05-22T11:38:08.684Z,1015.03
2019-05-22T11:39:08.673Z,1015.01
2019-05-22T11:40:08.684Z,1015.06
2019-05-22T11:41:08.667Z,1015.02
2019-05-22T11:42:08.659Z,1015.03
2019-05-22T11:43:08.689Z,1015.03
2019-05-22T11:44:08.863Z,1015.01
2019-05-22T11:45:08.659Z,1014.96
2019-05-22T11:46:08.667Z,1015.01
2019-05-22T11:47:08.863Z,1015.01
2019-05-22T11:48:08.641Z,1015.01
2019-05-22T11:49:08.651Z,1015.04
2019-05-22T11:50:08.654Z,1014.99
2019-05-22T11:51:08.655Z,1014.98
2019-05-22T11:52:08.638Z,1015.03
2019-05-22T11:53:08.835Z,1014.99
2019-05-22T11:54:09.909Z,1015.03
2019-05-22T11:55:08.641Z,1015.06
2019-05-22T11:56:08.623Z,1015.03
2019-05-22T11:57:08.637Z,1015.05
2019-05-22T11:58:08.623Z,1015.06
2019-05-22T11:59:08.627Z,1015.02
2019-05-22T12:00:09.404Z,1014.98
2019-05-22T12:01:08.637Z,1015.00
2019-05-22T12:02:08.605Z,1014.99
2019-05-22T12:03:08.603Z,1014.99
2019-05-22T12:04:08.600Z,1014.98
2019-05-22T12:05:08.594Z,1014.95
2019-05-22T12:06:08.595Z,1014.96
2019-05-22T12:07:08.610Z,1014.96